createdAt,value
2023-04-14T05:15:10.493Z,17.20
2023-04-14T05:17:38.028Z,15.30
2023-04-14T05:20:05.420Z,17.60
2023-04-14T05:22:37.332Z,16.50
2023-04-14T12:57:26.599Z,5.90
2023-04-14T12:59:55.542Z,5.30
2023-04-14T13:02:24.641Z,5.60
2023-04-14T13:04:56.433Z,5.90
2023-04-14T13:07:25.281Z,5.70
2023-04-14T13:37:33.657Z,6.20
2023-04-14T13:40:00.930Z,6.00
2023-04-14T13:42:28.168Z,6.20
2023-04-14T13:44:55.276Z,6.70
2023-04-14T13:47:28.973Z,6.00
2023-04-14T14:35:40.537Z,6.40
2023-04-14T14:38:08.139Z,6.90
2023-04-14T14:40:37.203Z,7.50
2023-04-14T14:43:47.957Z,7.20
2023-04-14T14:46:15.283Z,6.50
2023-04-14T14:48:41.793Z,6.00
2023-04-14T14:51:16.507Z,7.00
2023-04-14T14:57:06.998Z,6.40
2023-04-14T15:00:14.807Z,6.90
2023-04-14T15:02:41.904Z,6.50
2023-04-14T15:05:08.983Z,6.10
2023-04-14T15:07:44.115Z,6.70
2023-04-14T15:10:54.061Z,6.40
2023-04-14T15:13:21.327Z,6.80
2023-04-14T15:15:50.986Z,5.80
2023-04-14T15:18:21.904Z,6.00
2023-04-14T15:20:56.198Z,5.60
2023-04-14T15:23:25.558Z,6.00
2023-04-14T15:25:52.258Z,5.60
2023-04-14T15:28:21.087Z,5.10
2023-04-14T15:30:50.014Z,4.80
2023-04-14T15:33:16.599Z,5.00
2023-04-14T15:35:45.136Z,5.30
2023-04-14T15:38:11.873Z,4.20
2023-04-14T15:40:39.191Z,4.70
2023-04-14T15:43:06.700Z,5.10
2023-04-14T15:45:37.988Z,5.00
2023-04-14T15:48:06.516Z,4.10
2023-04-14T15:50:44.724Z,4.80
2023-04-14T15:53:20.404Z,5.80
2023-04-14T15:55:50.930Z,4.60
2023-04-14T15:58:18.815Z,4.30
2023-04-14T16:00:50.135Z,4.40
2023-04-14T16:03:19.307Z,3.70
2023-04-14T16:05:50.667Z,4.10
2023-04-14T16:08:19.731Z,3.50
2023-04-14T16:10:49.312Z,3.40
2023-04-14T16:13:21.425Z,3.50
2023-04-14T16:15:53.470Z,3.00
2023-04-14T17:54:38.720Z,5.80
2023-04-14T17:57:16.893Z,5.40
2023-04-14T17:59:44.453Z,5.20
2023-04-14T20:00:45.752Z,5.50
2023-04-14T20:03:12.706Z,5.40
2023-04-14T20:05:39.937Z,5.50
2023-04-14T20:08:13.274Z,5.40
2023-04-14T20:10:44.729Z,5.50
2023-04-14T20:13:11.194Z,5.40
2023-04-14T20:15:38.496Z,5.00
2023-04-14T21:03:16.047Z,5.30
2023-04-14T21:09:32.004Z,5.60
2023-04-14T22:04:36.681Z,4.90
2023-04-14T23:59:54.983Z,5.50
